createdAt,value
2018-04-07T00:00:04.473Z,9.26
2018-04-07T00:01:04.329Z,9.38
2018-04-07T00:02:04.342Z,9.28
2018-04-07T00:03:04.309Z,9.32
2018-04-07T00:04:04.677Z,9.29
2018-04-07T00:05:04.374Z,9.28
2018-04-07T00:06:04.235Z,9.26
2018-04-07T00:07:06.101Z,9.24
2018-04-07T00:08:04.269Z,9.23
2018-04-07T00:09:04.681Z,9.18
2018-04-07T00:10:04.197Z,9.28
2018-04-07T00:11:04.220Z,9.26
2018-04-07T00:12:04.210Z,9.21
2018-04-07T00:13:05.151Z,9.20
2018-04-07T00:14:04.156Z,9.21
2018-04-07T00:15:04.308Z,9.29
2018-04-07T00:16:05.308Z,9.23
2018-04-07T00:17:06.990Z,9.26
2018-04-07T00:18:05.015Z,9.21
2018-04-07T00:19:04.991Z,9.23
2018-04-07T00:20:06.144Z,9.20
2018-04-07T00:21:04.250Z,9.24
2018-04-07T00:22:04.802Z,9.17
2018-04-07T00:23:05.766Z,9.17
2018-04-07T00:24:03.983Z,9.15
2018-04-07T00:25:03.997Z,9.17
2018-04-07T00:26:05.040Z,9.18
2018-04-07T00:27:04.481Z,9.26
2018-04-07T00:28:04.014Z,9.26
2018-04-07T00:29:04.004Z,9.15
2018-04-07T00:30:04.116Z,9.26
2018-04-07T00:31:03.976Z,9.15
2018-04-07T00:32:08.456Z,9.15
2018-04-07T00:33:04.233Z,9.15
2018-04-07T00:34:04.450Z,9.17
2018-04-07T00:35:06.585Z,9.17
2018-04-07T00:36:04.071Z,9.10
2018-04-07T00:37:03.900Z,9.11
2018-04-07T00:38:05.520Z,9.15
2018-04-07T00:39:04.096Z,9.17
2018-04-07T00:40:04.482Z,9.17
2018-04-07T00:41:04.869Z,9.10
2018-04-07T00:42:03.744Z,9.05
2018-04-07T00:43:04.489Z,9.11
2018-04-07T00:44:05.661Z,9.01
2018-04-07T00:45:04.135Z,8.95
2018-04-07T00:46:03.665Z,9.02
2018-04-07T00:47:03.685Z,9.02
2018-04-07T00:48:18.473Z,8.92
2018-04-07T00:49:03.793Z,8.98
2018-04-07T00:50:04.709Z,8.99
2018-04-07T00:51:03.652Z,8.94
2018-04-07T00:52:04.724Z,9.02
2018-04-07T00:53:03.627Z,8.99
2018-04-07T00:54:03.977Z,8.95
2018-04-07T00:55:05.402Z,9.08
2018-04-07T00:56:05.531Z,8.96
2018-04-07T00:57:04.817Z,8.95
2018-04-07T00:58:03.527Z,8.96
2018-04-07T00:59:03.549Z,9.04
2018-04-07T01:00:05.481Z,8.98
2018-04-07T01:01:03.569Z,8.98
2018-04-07T01:02:03.490Z,8.95
2018-04-07T01:03:03.522Z,8.95
2018-04-07T01:04:04.083Z,8.94
2018-04-07T01:05:05.152Z,8.87
2018-04-07T01:06:05.121Z,8.87
2018-04-07T01:07:03.489Z,8.91
2018-04-07T01:08:08.095Z,8.76
2018-04-07T01:09:03.482Z,8.83
2018-04-07T01:10:03.472Z,8.76
2018-04-07T01:11:04.125Z,8.80
2018-04-07T01:12:05.298Z,8.84
2018-04-07T01:13:24.386Z,8.77
2018-04-07T01:14:03.442Z,8.74
2018-04-07T01:15:03.341Z,8.79
2018-04-07T01:16:04.047Z,8.83
2018-04-07T01:17:03.253Z,8.80
2018-04-07T01:18:03.876Z,8.74
2018-04-07T01:19:03.223Z,8.76
2018-04-07T01:20:03.381Z,8.71
2018-04-07T01:21:03.201Z,8.76
2018-04-07T01:22:03.465Z,8.73
2018-04-07T01:23:03.254Z,8.73
2018-04-07T01:24:03.776Z,8.65
2018-04-07T01:25:03.125Z,8.70
2018-04-07T01:26:03.250Z,8.62
2018-04-07T01:27:03.093Z,8.71
2018-04-07T01:28:03.237Z,8.62
2018-04-07T01:29:03.167Z,8.68
2018-04-07T01:30:03.299Z,8.59
2018-04-07T01:31:04.540Z,8.63
2018-04-07T01:32:03.091Z,8.63
2018-04-07T01:33:03.148Z,8.62
2018-04-07T01:34:03.704Z,8.59
2018-04-07T01:35:03.001Z,8.63
2018-04-07T01:36:03.007Z,8.45
2018-04-07T01:37:02.984Z,8.56
2018-04-07T01:38:02.933Z,8.47
2018-04-07T01:39:02.915Z,8.47
2018-04-07T01:40:03.533Z,8.40
2018-04-07T01:41:03.042Z,8.44
2018-04-07T01:42:02.929Z,8.47
2018-04-07T01:43:05.978Z,8.44
2018-04-07T01:44:02.964Z,8.44
2018-04-07T01:45:02.989Z,8.43
2018-04-07T01:46:03.533Z,8.47
2018-04-07T01:47:02.824Z,8.43
2018-04-07T01:48:02.963Z,8.43
2018-04-07T04:34:37.398Z,7.23
2018-04-07T04:35:37.357Z,7.23
2018-04-07T04:36:37.344Z,7.24
2018-04-07T04:37:37.308Z,7.23
2018-04-07T04:38:37.297Z,7.25
2018-04-07T04:39:37.284Z,7.28
2018-04-07T04:40:37.272Z,7.32
2018-04-07T04:41:37.264Z,7.28
2018-04-07T04:42:37.240Z,7.34
2018-04-07T04:43:37.209Z,7.37
2018-04-07T04:44:37.217Z,7.34
2018-04-07T04:45:37.189Z,7.37
2018-04-07T04:46:37.217Z,7.32
2018-04-07T04:47:37.147Z,7.28
2018-04-07T04:48:37.124Z,7.37
2018-04-07T04:49:37.126Z,7.40
2018-04-07T04:50:37.099Z,7.24
2018-04-07T04:51:37.104Z,7.28
2018-04-07T04:52:37.104Z,7.25
2018-04-07T04:53:37.066Z,7.24
2018-04-07T04:54:37.035Z,7.24
2018-04-07T04:55:37.015Z,7.25
2018-04-07T04:56:37.012Z,7.24
2018-04-07T04:57:36.993Z,7.31
2018-04-07T04:58:36.993Z,7.28
2018-04-07T04:59:37.017Z,7.24
2018-04-07T05:00:36.947Z,7.31
2018-04-07T05:01:36.926Z,7.32
2018-04-07T05:02:36.934Z,7.37
2018-04-07T05:03:36.916Z,7.34
2018-04-07T05:04:36.890Z,7.32
2018-04-07T05:05:36.919Z,7.30
2018-04-07T05:06:36.854Z,7.37
2018-04-07T05:07:36.861Z,7.34
2018-04-07T05:08:36.826Z,7.37
2018-04-07T05:09:36.816Z,7.31
2018-04-07T05:10:37.153Z,7.39
2018-04-07T05:11:36.771Z,7.37
2018-04-07T05:12:36.769Z,7.31
2018-04-07T05:13:36.741Z,7.30
2018-04-07T05:14:36.732Z,7.32
2018-04-07T05:15:36.704Z,7.39
2018-04-07T05:16:36.707Z,7.40
2018-04-07T05:17:36.688Z,7.37
2018-04-07T05:18:36.671Z,7.34
2018-04-07T05:19:36.662Z,7.34
2018-04-07T05:20:36.658Z,7.35
2018-04-07T05:21:36.674Z,7.37
2018-04-07T05:22:36.596Z,7.43
2018-04-07T05:23:36.611Z,7.43
2018-04-07T05:24:36.575Z,7.43
2018-04-07T05:25:36.556Z,7.37
2018-04-07T05:26:36.538Z,7.34
2018-04-07T05:27:36.532Z,7.35
2018-04-07T05:28:36.564Z,7.40
2018-04-07T05:29:36.500Z,7.40
2018-04-07T05:30:36.476Z,7.49
2018-04-07T05:31:36.479Z,7.55
2018-04-07T05:32:36.446Z,7.46
2018-04-07T05:33:36.447Z,7.48
2018-04-07T05:34:36.428Z,7.48
2018-04-07T05:35:36.427Z,7.48
2018-04-07T05:36:36.387Z,7.45
2018-04-07T05:37:36.368Z,7.53
2018-04-07T05:38:36.367Z,7.49
2018-04-07T05:39:36.381Z,7.48
2018-04-07T05:40:36.321Z,7.52
2018-04-07T05:41:36.677Z,7.58
2018-04-07T05:42:36.310Z,7.57
2018-04-07T05:43:36.290Z,7.53
2018-04-07T05:44:36.294Z,7.61
2018-04-07T05:45:36.473Z,7.64
2018-04-07T05:46:36.229Z,7.64
2018-04-07T05:47:36.255Z,7.64
2018-04-07T05:48:36.211Z,7.63
2018-04-07T05:49:36.207Z,7.71
2018-04-07T05:50:36.192Z,7.72
2018-04-07T05:51:36.179Z,7.74
2018-04-07T05:52:36.183Z,7.75
2018-04-07T05:53:36.127Z,7.74
2018-04-07T05:54:36.130Z,7.75
2018-04-07T05:55:36.096Z,7.80
2018-04-07T05:56:36.104Z,7.77
2018-04-07T05:57:36.120Z,7.82
2018-04-07T05:58:36.076Z,7.89
2018-04-07T05:59:36.037Z,7.83
2018-04-07T06:00:36.020Z,7.83
2018-04-07T06:01:36.024Z,7.89
2018-04-07T06:02:35.989Z,7.90
2018-04-07T06:03:36.277Z,7.95
2018-04-07T06:04:35.977Z,8.02
2018-04-07T06:05:35.952Z,7.93
2018-04-07T06:06:35.938Z,8.05
2018-04-07T06:07:35.926Z,8.08
2018-04-07T06:08:35.898Z,8.11
2018-04-07T06:09:35.923Z,8.05
2018-04-07T06:10:35.875Z,8.19
2018-04-07T06:11:35.857Z,8.12
2018-04-07T06:12:35.849Z,8.26
2018-04-07T06:13:35.838Z,8.28
2018-04-07T06:14:35.823Z,8.28
2018-04-07T06:15:36.116Z,8.33
2018-04-07T06:16:35.783Z,8.36
2018-04-07T06:17:36.126Z,8.43
2018-04-07T06:18:35.779Z,8.44
2018-04-07T06:19:35.758Z,8.45
2018-04-07T06:20:35.724Z,8.50
2018-04-07T06:21:35.735Z,8.56
2018-04-07T06:22:35.704Z,8.65
2018-04-07T06:23:35.717Z,8.62
2018-04-07T06:24:35.667Z,8.71
2018-04-07T06:25:35.665Z,8.71
2018-04-07T06:26:35.649Z,8.79
2018-04-07T06:27:35.630Z,8.83
2018-04-07T06:28:35.647Z,8.80
2018-04-07T06:29:35.611Z,8.77
2018-04-07T06:30:35.616Z,8.87
2018-04-07T06:31:35.577Z,8.96
2018-04-07T06:32:35.578Z,8.98
2018-04-07T06:33:35.555Z,9.10
2018-04-07T06:34:35.539Z,9.02
2018-04-07T06:35:35.565Z,9.08
2018-04-07T06:36:35.493Z,9.17
2018-04-07T06:37:35.489Z,9.11
2018-04-07T06:38:35.463Z,9.17
2018-04-07T06:39:35.538Z,9.23
2018-04-07T06:40:35.451Z,9.23
2018-04-07T06:41:35.453Z,9.21
2018-04-07T06:42:35.407Z,9.21
2018-04-07T06:43:35.421Z,9.35
2018-04-07T06:44:35.399Z,9.23
2018-04-07T06:45:35.736Z,9.32
2018-04-07T06:46:35.384Z,9.35
2018-04-07T06:47:35.351Z,9.31
2018-04-07T06:48:35.342Z,9.35
2018-04-07T06:49:35.394Z,9.40
2018-04-07T06:50:35.315Z,9.50
2018-04-07T06:51:35.301Z,9.39
2018-04-07T06:52:35.275Z,9.53
2018-04-07T06:53:35.285Z,9.54
2018-04-07T06:54:35.247Z,9.57
2018-04-07T06:55:35.283Z,9.66
2018-04-07T06:56:35.241Z,9.68
2018-04-07T06:57:35.217Z,9.72
2018-04-07T06:58:35.192Z,9.81
2018-04-07T06:59:35.190Z,9.79
2018-04-07T07:00:35.185Z,9.81
2018-04-07T07:01:35.167Z,9.81
2018-04-07T07:02:35.166Z,9.89
2018-04-07T07:03:35.145Z,9.89
2018-04-07T07:04:35.115Z,9.94
2018-04-07T07:05:35.102Z,9.91
2018-04-07T07:06:35.136Z,10.07
2018-04-07T07:07:35.064Z,10.08
2018-04-07T07:08:35.063Z,10.05
2018-04-07T07:09:35.059Z,10.07
2018-04-07T07:10:35.028Z,10.17
2018-04-07T07:11:35.028Z,10.20
2018-04-07T07:12:35.042Z,10.27
2018-04-07T07:13:35.004Z,10.36
2018-04-07T07:14:34.989Z,10.36
2018-04-07T07:15:34.975Z,10.38
2018-04-07T07:16:34.976Z,10.40
2018-04-07T07:17:35.294Z,10.45
2018-04-07T07:18:34.943Z,10.47
2018-04-07T07:19:34.926Z,10.47
2018-04-07T07:20:34.906Z,10.52
2018-04-07T07:21:34.888Z,10.48
2018-04-07T07:22:34.877Z,10.48
2018-04-07T07:23:34.887Z,10.52
2018-04-07T07:24:34.863Z,10.59
2018-04-07T07:25:34.831Z,10.55
2018-04-07T07:26:34.848Z,10.63
2018-04-07T07:27:34.825Z,10.61
2018-04-07T07:28:34.789Z,10.59
2018-04-07T07:29:34.796Z,10.59
2018-04-07T07:30:34.776Z,10.71
2018-04-07T07:31:34.831Z,10.76
2018-04-07T07:32:34.754Z,10.71
2018-04-07T07:33:34.741Z,10.89
2018-04-07T07:34:34.721Z,10.81
2018-04-07T07:35:34.734Z,10.97
2018-04-07T07:36:34.709Z,10.92
2018-04-07T07:37:34.730Z,11.04
2018-04-07T07:38:34.675Z,11.04
2018-04-07T07:39:34.662Z,11.06
2018-04-07T07:40:34.653Z,11.09
2018-04-07T07:41:34.635Z,11.11
2018-04-07T07:42:34.630Z,11.22
2018-04-07T07:43:34.632Z,11.27
2018-04-07T07:44:34.589Z,11.36
2018-04-07T07:45:34.602Z,11.36
2018-04-07T07:46:34.563Z,11.29
2018-04-07T07:47:34.564Z,11.36
2018-04-07T07:48:34.591Z,11.39
2018-04-07T07:49:34.534Z,11.39
2018-04-07T07:50:34.532Z,11.51
2018-04-07T07:51:34.529Z,11.57
2018-04-07T07:52:34.504Z,11.57
2018-04-07T07:53:34.487Z,11.60
2018-04-07T07:54:34.504Z,11.58
2018-04-07T07:55:34.481Z,11.60
2018-04-07T07:56:34.471Z,11.64
2018-04-07T07:57:34.445Z,11.62
2018-04-07T07:58:34.428Z,11.62
2018-04-07T07:59:34.446Z,11.75
2018-04-07T08:00:34.426Z,11.72
2018-04-07T08:01:34.455Z,11.67
2018-04-07T08:02:34.389Z,11.67
2018-04-07T08:03:34.369Z,11.85
2018-04-07T08:04:34.364Z,11.91
2018-04-07T08:05:34.356Z,11.96
2018-04-07T08:06:34.338Z,11.94
2018-04-07T08:07:34.356Z,12.02
2018-04-07T08:08:34.333Z,12.02
2018-04-07T08:09:34.352Z,12.12
2018-04-07T08:10:34.280Z,12.09
2018-04-07T08:11:34.267Z,12.12
2018-04-07T08:12:34.266Z,12.19
2018-04-07T08:13:34.258Z,12.23
2018-04-07T08:14:34.262Z,12.34
2018-04-07T08:15:34.245Z,12.37
2018-04-07T08:16:34.213Z,12.39
2018-04-07T08:17:34.214Z,12.54
2018-04-07T08:18:34.923Z,12.53
2018-04-07T08:19:34.206Z,12.54
2018-04-07T08:20:34.207Z,12.56
2018-04-07T08:21:34.218Z,12.64
2018-04-07T08:22:34.187Z,12.72
2018-04-07T08:23:34.161Z,12.77
2018-04-07T08:24:34.131Z,12.77
2018-04-07T08:25:34.113Z,12.90
2018-04-07T08:26:34.174Z,12.96
2018-04-07T08:27:34.117Z,13.10
2018-04-07T08:28:34.105Z,13.07
2018-04-07T08:29:34.104Z,13.12
2018-04-07T08:30:34.105Z,13.15
2018-04-07T08:31:34.065Z,13.25
2018-04-07T08:32:34.107Z,13.28
2018-04-07T08:33:34.072Z,13.30
2018-04-07T08:34:34.030Z,13.44
2018-04-07T08:35:34.015Z,13.54
2018-04-07T08:36:34.010Z,13.45
2018-04-07T08:37:34.001Z,13.54
2018-04-07T08:38:33.990Z,13.69
2018-04-07T08:39:34.038Z,13.55
2018-04-07T08:40:33.971Z,13.66
2018-04-07T08:41:33.976Z,13.67
2018-04-07T08:42:33.957Z,13.62
2018-04-07T08:43:33.984Z,13.66
2018-04-07T08:44:34.019Z,13.73
2018-04-07T08:45:33.931Z,13.84
2018-04-07T08:46:33.938Z,13.87
2018-04-07T08:47:33.924Z,13.95
2018-04-07T08:48:33.902Z,13.95
2018-04-07T08:49:33.907Z,14.10
2018-04-07T08:50:33.904Z,14.17
2018-04-07T08:51:33.891Z,14.17
2018-04-07T08:52:33.868Z,14.21
2018-04-07T08:53:33.868Z,14.24
2018-04-07T08:54:33.866Z,14.29
2018-04-07T08:55:34.115Z,14.40
2018-04-07T08:56:33.849Z,14.39
2018-04-07T08:57:33.828Z,14.36
2018-04-07T08:58:33.850Z,14.46
2018-04-07T08:59:33.845Z,14.47
2018-04-07T09:00:33.810Z,14.47
2018-04-07T09:01:33.830Z,14.54
2018-04-07T09:02:33.798Z,14.55
2018-04-07T09:03:33.787Z,14.50
2018-04-07T09:04:33.775Z,14.51
2018-04-07T09:05:33.839Z,14.51
2018-04-07T09:06:33.765Z,14.52
2018-04-07T09:07:33.748Z,14.61
2018-04-07T09:08:33.744Z,14.72
2018-04-07T09:09:33.736Z,14.81
2018-04-07T09:10:33.748Z,14.86
2018-04-07T09:11:33.764Z,14.89
2018-04-07T09:12:33.741Z,14.89
2018-04-07T09:13:33.730Z,14.95
2018-04-07T09:14:33.749Z,15.13
2018-04-07T09:15:33.689Z,15.13
2018-04-07T09:16:33.693Z,15.17
2018-04-07T09:17:33.678Z,15.29
2018-04-07T09:18:33.688Z,15.35
2018-04-07T09:19:33.658Z,15.49
2018-04-07T09:20:33.684Z,15.64
2018-04-07T09:21:33.644Z,15.62
2018-04-07T09:22:33.661Z,15.60
2018-04-07T09:23:33.843Z,15.62
2018-04-07T09:24:33.639Z,15.72
2018-04-07T09:25:33.635Z,15.71
2018-04-07T09:26:33.627Z,15.82
2018-04-07T09:27:33.605Z,15.83
2018-04-07T09:28:33.602Z,15.87
2018-04-07T09:29:33.612Z,15.87
2018-04-07T09:30:33.602Z,16.00
2018-04-07T09:31:33.586Z,16.09
2018-04-07T09:32:33.611Z,16.15
2018-04-07T09:33:33.572Z,16.27
2018-04-07T09:34:33.585Z,16.38
2018-04-07T09:35:33.564Z,16.39
2018-04-07T09:36:33.558Z,16.43
2018-04-07T09:37:33.566Z,16.53
2018-04-07T09:38:33.563Z,16.53
2018-04-07T09:39:33.577Z,16.66
2018-04-07T09:40:33.554Z,16.81
2018-04-07T09:41:33.583Z,16.91
2018-04-07T09:42:33.526Z,16.98
2018-04-07T09:43:33.522Z,17.12
2018-04-07T09:44:33.529Z,17.08
2018-04-07T09:45:33.581Z,17.22
2018-04-07T09:46:33.524Z,17.28
2018-04-07T09:47:33.531Z,17.26
2018-04-07T09:48:33.512Z,17.33
2018-04-07T09:49:33.500Z,17.36
2018-04-07T09:50:33.511Z,17.44
2018-04-07T09:51:33.490Z,17.44
2018-04-07T09:52:33.486Z,17.48
2018-04-07T09:53:33.543Z,17.44
2018-04-07T09:54:33.487Z,17.48
2018-04-07T09:55:33.480Z,17.48
2018-04-07T09:56:33.475Z,17.54
2018-04-07T09:57:33.490Z,17.51
2018-04-07T09:58:33.481Z,17.55
2018-04-07T09:59:33.476Z,17.52
2018-04-07T10:00:33.479Z,17.44
2018-04-07T10:01:33.482Z,17.44
2018-04-07T10:02:33.472Z,17.54
2018-04-07T10:03:33.467Z,17.62
2018-04-07T10:04:33.497Z,17.55
2018-04-07T10:05:33.463Z,17.68
2018-04-07T10:06:33.450Z,17.71
2018-04-07T10:07:33.461Z,17.79
2018-04-07T10:08:33.447Z,17.92
2018-04-07T10:09:33.445Z,18.03
2018-04-07T10:10:33.463Z,18.00
2018-04-07T10:11:33.457Z,18.11
2018-04-07T10:12:33.436Z,18.12
2018-04-07T10:13:33.451Z,18.26
2018-04-07T10:14:33.431Z,18.30
2018-04-07T10:15:33.445Z,18.35
2018-04-07T10:16:33.433Z,18.48
2018-04-07T10:17:33.432Z,18.50
2018-04-07T10:18:33.408Z,18.72
2018-04-07T10:19:33.428Z,18.70
2018-04-07T10:20:33.491Z,18.66
2018-04-07T10:21:33.420Z,18.81
2018-04-07T10:22:33.405Z,18.81
2018-04-07T10:23:33.419Z,18.99
2018-04-07T10:24:33.411Z,18.90
2018-04-07T10:25:33.431Z,19.07
2018-04-07T10:26:33.420Z,19.11
2018-04-07T10:27:33.418Z,19.16
2018-04-07T10:28:33.397Z,19.26
2018-04-07T10:29:33.417Z,19.25
2018-04-07T10:30:33.410Z,19.28
2018-04-07T10:31:33.405Z,19.40
2018-04-07T10:32:33.396Z,19.39
2018-04-07T10:33:33.409Z,19.32
2018-04-07T10:34:33.398Z,19.40
2018-04-07T10:35:33.422Z,19.46
2018-04-07T10:36:33.463Z,19.47
2018-04-07T10:37:33.388Z,19.44
2018-04-07T10:38:33.385Z,19.59
2018-04-07T10:39:33.407Z,19.55
2018-04-07T10:40:33.390Z,19.66
2018-04-07T10:41:33.401Z,19.73
2018-04-07T10:42:33.442Z,19.81
2018-04-07T10:43:33.376Z,19.88
2018-04-07T10:44:33.384Z,19.92
2018-04-07T10:45:33.380Z,20.01
2018-04-07T10:46:33.375Z,20.14
2018-04-07T10:47:33.383Z,20.28
2018-04-07T10:48:33.422Z,20.29
2018-04-07T10:49:33.402Z,20.33
2018-04-07T10:50:33.396Z,20.50
2018-04-07T10:51:33.386Z,20.38
2018-04-07T10:52:33.499Z,20.41
2018-04-07T10:53:34.579Z,20.38
2018-04-07T10:54:34.524Z,20.55
2018-04-07T10:55:34.987Z,20.41
2018-04-07T10:56:33.997Z,20.57
2018-04-07T10:57:34.085Z,20.54
2018-04-07T10:58:34.044Z,20.41
2018-04-07T10:59:34.306Z,20.42
2018-04-07T11:00:33.381Z,20.41
2018-04-07T11:01:33.732Z,20.43
2018-04-07T11:02:33.374Z,20.42
2018-04-07T11:03:33.414Z,20.51
2018-04-07T11:04:33.569Z,20.58
2018-04-07T11:05:33.373Z,20.59
2018-04-07T11:06:33.378Z,20.72
2018-04-07T11:07:33.404Z,20.91
2018-04-07T11:08:33.390Z,20.85
2018-04-07T11:09:33.380Z,20.95
2018-04-07T11:10:33.389Z,20.94
2018-04-07T11:11:33.378Z,20.98
2018-04-07T11:12:33.390Z,20.92
2018-04-07T11:13:33.381Z,20.94
2018-04-07T11:14:33.366Z,20.82
2018-04-07T11:15:33.417Z,20.87
2018-04-07T11:16:33.380Z,20.69
2018-04-07T11:17:33.377Z,20.69
2018-04-07T11:18:33.373Z,20.72
2018-04-07T11:19:33.362Z,20.62
2018-04-07T11:20:33.360Z,20.73
2018-04-07T11:21:33.391Z,20.66
2018-04-07T11:22:33.373Z,20.58
2018-04-07T11:23:33.356Z,20.59
2018-04-07T11:24:33.394Z,20.59
2018-04-07T11:25:33.356Z,20.64
2018-04-07T11:26:33.348Z,20.62
2018-04-07T11:27:33.379Z,20.67
2018-04-07T11:28:33.365Z,20.74
2018-04-07T11:29:33.343Z,20.73
2018-04-07T11:30:33.360Z,20.84
2018-04-07T11:31:33.341Z,20.84
2018-04-07T11:32:33.344Z,20.99
2018-04-07T11:33:33.408Z,21.01
2018-04-07T11:34:33.347Z,21.10
2018-04-07T11:35:33.339Z,21.21
2018-04-07T11:36:33.332Z,21.28
2018-04-07T11:37:33.347Z,21.31
2018-04-07T11:38:34.014Z,21.38
2018-04-07T11:39:33.331Z,21.43
2018-04-07T11:40:33.346Z,21.47
2018-04-07T11:41:33.341Z,21.56
2018-04-07T11:42:33.340Z,21.67
2018-04-07T11:43:33.350Z,21.82
2018-04-07T11:44:33.370Z,21.84
2018-04-07T11:45:33.344Z,21.92
2018-04-07T11:46:33.349Z,21.92
2018-04-07T11:47:33.327Z,21.86
2018-04-07T11:48:33.322Z,21.96
2018-04-07T11:49:33.319Z,22.06
2018-04-07T11:50:33.321Z,22.10
2018-04-07T11:51:33.396Z,22.21
2018-04-07T11:52:33.319Z,22.28
2018-04-07T11:53:33.318Z,22.31
2018-04-07T11:54:33.328Z,22.37
2018-04-07T11:55:33.326Z,22.52
2018-04-07T11:56:33.339Z,22.52
2018-04-07T11:57:33.360Z,22.58
2018-04-07T11:58:33.324Z,22.82
2018-04-07T11:59:33.327Z,22.94
2018-04-07T12:00:33.326Z,23.05
2018-04-07T12:01:33.323Z,23.31
2018-04-07T12:02:33.413Z,23.47
2018-04-07T12:03:33.334Z,23.69
2018-04-07T12:04:33.367Z,23.93
2018-04-07T12:05:33.340Z,24.16
2018-04-07T12:06:33.340Z,24.30
2018-04-07T12:07:33.331Z,24.61
2018-04-07T12:08:33.344Z,24.93
2018-04-07T12:09:33.376Z,25.10
2018-04-07T12:10:33.357Z,25.40
2018-04-07T12:11:33.442Z,25.67
2018-04-07T12:12:33.359Z,25.92
2018-04-07T12:13:33.407Z,26.29
2018-04-07T12:14:33.383Z,26.51
2018-04-07T12:15:33.369Z,26.67
2018-04-07T12:16:33.377Z,26.84
2018-04-07T12:17:33.429Z,26.84
2018-04-07T12:18:33.400Z,26.88
2018-04-07T12:19:33.391Z,27.17
2018-04-07T12:20:33.414Z,27.19
2018-04-07T12:21:33.421Z,27.25
2018-04-07T12:22:33.416Z,27.25
2018-04-07T12:23:33.436Z,27.29
2018-04-07T12:24:33.431Z,27.41
2018-04-07T12:25:33.427Z,27.50
2018-04-07T12:26:33.567Z,27.75
2018-04-07T12:27:33.456Z,27.82
2018-04-07T12:28:33.574Z,28.00
2018-04-07T12:29:33.473Z,28.18
2018-04-07T12:30:33.464Z,28.31
2018-04-07T12:31:33.467Z,28.54
2018-04-07T12:32:33.500Z,28.64
2018-04-07T12:33:33.506Z,29.00
2018-04-07T12:34:33.526Z,29.14
2018-04-07T12:35:33.496Z,29.24
2018-04-07T12:36:33.522Z,29.37
2018-04-07T12:37:33.531Z,29.48
2018-04-07T12:38:33.520Z,29.49
2018-04-07T12:39:33.629Z,29.49
2018-04-07T12:40:33.542Z,29.46
2018-04-07T12:41:33.568Z,29.41
2018-04-07T12:42:33.552Z,29.46
2018-04-07T12:43:34.225Z,29.42
2018-04-07T12:44:33.633Z,29.34
2018-04-07T12:45:33.634Z,29.23
2018-04-07T12:46:33.582Z,29.04
2018-04-07T12:47:33.609Z,28.92
2018-04-07T12:48:33.618Z,28.62
2018-04-07T12:49:33.612Z,28.64
2018-04-07T12:50:33.646Z,28.56
2018-04-07T12:51:33.646Z,28.43
2018-04-07T12:52:33.659Z,28.41
2018-04-07T12:53:33.646Z,28.34
2018-04-07T12:54:33.643Z,28.25
2018-04-07T12:55:33.736Z,28.25
2018-04-07T12:56:33.671Z,28.17
2018-04-07T12:57:33.693Z,28.00
2018-04-07T12:58:33.673Z,27.94
2018-04-07T12:59:33.685Z,27.78
2018-04-07T13:00:33.688Z,27.60
2018-04-07T13:01:33.712Z,27.51
2018-04-07T13:02:33.715Z,27.36
2018-04-07T13:03:33.721Z,27.34
2018-04-07T13:04:33.711Z,27.28
2018-04-07T13:05:33.728Z,27.25
2018-04-07T13:06:33.745Z,27.37
2018-04-07T13:07:33.724Z,27.40
2018-04-07T13:08:33.754Z,27.44
2018-04-07T13:09:33.770Z,27.43
2018-04-07T13:10:33.768Z,27.54
2018-04-07T13:11:33.773Z,27.51
2018-04-07T13:12:33.767Z,27.60
2018-04-07T13:13:33.772Z,27.79
2018-04-07T13:14:33.778Z,27.87
2018-04-07T13:15:33.789Z,27.96
2018-04-07T13:16:33.862Z,27.92
2018-04-07T13:17:33.772Z,27.93
2018-04-07T13:18:33.785Z,28.02
2018-04-07T13:19:33.786Z,28.19
2018-04-07T13:20:33.796Z,28.18
2018-04-07T13:21:33.795Z,28.17
2018-04-07T13:22:33.864Z,28.15
2018-04-07T13:23:33.813Z,28.17
2018-04-07T13:24:33.824Z,27.97
2018-04-07T13:25:33.830Z,28.00
2018-04-07T13:26:33.831Z,27.97
2018-04-07T13:27:33.862Z,27.87
2018-04-07T13:28:33.862Z,27.93
2018-04-07T13:29:33.859Z,27.78
2018-04-07T13:30:33.854Z,27.67
2018-04-07T13:31:33.853Z,27.69
2018-04-07T13:32:33.868Z,27.60
2018-04-07T13:33:38.527Z,27.50
2018-04-07T13:34:33.876Z,27.55
2018-04-07T13:35:33.892Z,27.49
2018-04-07T13:36:33.899Z,27.43
2018-04-07T13:37:33.878Z,27.31
2018-04-07T13:38:33.958Z,27.18
2018-04-07T13:39:33.897Z,27.13
2018-04-07T13:40:33.903Z,26.89
2018-04-07T13:41:33.894Z,26.82
2018-04-07T13:42:33.906Z,26.82
2018-04-07T13:43:33.911Z,26.77
2018-04-07T13:44:33.971Z,26.82
2018-04-07T13:45:33.922Z,26.81
2018-04-07T13:46:33.937Z,26.76
2018-04-07T13:47:33.937Z,26.67
2018-04-07T13:48:33.922Z,26.66
2018-04-07T13:49:33.929Z,26.70
2018-04-07T13:50:33.940Z,26.60
2018-04-07T13:51:33.931Z,26.57
2018-04-07T13:52:33.926Z,26.51
2018-04-07T13:53:33.952Z,26.51
2018-04-07T13:54:33.974Z,26.58
2018-04-07T13:55:33.952Z,26.58
2018-04-07T13:56:33.950Z,26.62
2018-04-07T13:57:33.954Z,26.65
2018-04-07T13:58:33.944Z,26.80
2018-04-07T13:59:34.001Z,26.94
2018-04-07T14:00:33.994Z,27.13
2018-04-07T14:01:33.961Z,27.39
2018-04-07T14:02:33.976Z,27.54
2018-04-07T14:03:33.980Z,27.66
2018-04-07T14:04:33.996Z,27.79
2018-04-07T14:05:33.994Z,27.96
2018-04-07T14:06:33.998Z,27.94
2018-04-07T14:07:33.991Z,28.15
2018-04-07T14:08:33.996Z,28.34
2018-04-07T14:09:33.990Z,28.64
2018-04-07T14:10:34.010Z,28.96
2018-04-07T14:11:33.998Z,29.18
2018-04-07T14:12:33.999Z,29.63
2018-04-07T14:13:34.024Z,29.89
2018-04-07T14:14:34.033Z,30.19
2018-04-07T14:15:34.035Z,30.54
2018-04-07T14:16:34.021Z,30.82
2018-04-07T14:17:34.033Z,30.99
2018-04-07T14:18:34.040Z,31.29
2018-04-07T14:19:34.044Z,31.39
2018-04-07T14:20:34.057Z,31.57
2018-04-07T14:21:34.068Z,31.70
2018-04-07T14:22:34.073Z,31.58
2018-04-07T14:23:34.074Z,31.70
2018-04-07T14:24:34.078Z,31.72
2018-04-07T14:25:34.138Z,31.88
2018-04-07T14:26:34.120Z,32.00
2018-04-07T14:27:34.101Z,31.96
2018-04-07T14:28:34.124Z,32.19
2018-04-07T14:29:34.114Z,32.25
2018-04-07T14:30:34.122Z,32.43
2018-04-07T14:31:34.177Z,32.65
2018-04-07T14:32:34.152Z,32.67
2018-04-07T14:33:34.143Z,32.70
2018-04-07T14:34:34.157Z,32.82
2018-04-07T14:35:34.162Z,32.89
2018-04-07T14:36:34.201Z,33.03
2018-04-07T14:37:34.180Z,33.15
2018-04-07T14:38:34.191Z,33.35
2018-04-07T14:39:34.199Z,33.50
2018-04-07T14:40:34.262Z,33.41
2018-04-07T14:41:34.293Z,33.47
2018-04-07T14:42:34.242Z,33.31
2018-04-07T14:43:34.238Z,33.31
2018-04-07T14:44:34.255Z,33.32
2018-04-07T14:45:34.270Z,33.29
2018-04-07T14:46:34.284Z,33.19
2018-04-07T14:47:34.272Z,33.16
2018-04-07T14:48:34.314Z,32.99
2018-04-07T14:49:34.318Z,32.89
2018-04-07T14:50:34.296Z,32.85
2018-04-07T14:51:34.313Z,32.70
2018-04-07T14:52:34.326Z,32.67
2018-04-07T14:53:35.020Z,32.69
2018-04-07T14:54:34.335Z,32.66
2018-04-07T14:55:34.356Z,32.67
2018-04-07T14:56:34.353Z,32.62
2018-04-07T14:57:34.370Z,32.74
2018-04-07T14:58:34.413Z,32.82
2018-04-07T14:59:34.386Z,32.79
2018-04-07T15:00:34.452Z,32.78
2018-04-07T15:01:34.404Z,32.69
2018-04-07T15:02:34.418Z,32.81
2018-04-07T15:03:34.434Z,32.87
2018-04-07T15:04:34.435Z,32.81
2018-04-07T15:05:34.438Z,32.85
2018-04-07T15:06:34.484Z,32.70
2018-04-07T15:07:34.455Z,32.45
2018-04-07T15:08:34.458Z,32.28
2018-04-07T15:09:34.484Z,32.21
2018-04-07T15:10:34.490Z,32.00
2018-04-07T15:11:34.484Z,31.76
2018-04-07T15:12:34.501Z,31.57
2018-04-07T15:13:34.518Z,31.48
2018-04-07T15:14:34.491Z,31.39
2018-04-07T15:15:34.795Z,31.36
2018-04-07T15:16:34.535Z,31.28
2018-04-07T15:17:34.553Z,30.98
2018-04-07T15:18:34.552Z,30.89
2018-04-07T15:19:34.536Z,30.82
2018-04-07T15:20:34.547Z,30.55
2018-04-07T15:21:34.545Z,30.45
2018-04-07T15:22:34.623Z,30.38
2018-04-07T15:23:34.560Z,30.11
2018-04-07T15:24:34.559Z,30.02
2018-04-07T15:25:34.594Z,29.87
2018-04-07T15:26:34.580Z,29.85
2018-04-07T15:27:34.603Z,29.74
2018-04-07T15:28:34.659Z,29.78
2018-04-07T15:29:34.595Z,29.70
2018-04-07T15:30:34.602Z,29.60
2018-04-07T15:31:34.626Z,29.63
2018-04-07T15:32:34.616Z,29.63
2018-04-07T15:33:34.630Z,29.71
2018-04-07T15:34:34.620Z,29.79
2018-04-07T15:35:34.651Z,29.71
2018-04-07T15:36:34.654Z,29.85
2018-04-07T15:37:34.638Z,29.80
2018-04-07T15:38:34.628Z,29.74
2018-04-07T15:39:34.730Z,29.57
2018-04-07T15:40:34.643Z,29.55
2018-04-07T15:41:34.670Z,29.45
2018-04-07T15:42:34.672Z,29.21
2018-04-07T15:43:34.682Z,29.05
2018-04-07T15:44:34.658Z,28.92
2018-04-07T15:45:34.698Z,28.77
2018-04-07T15:46:34.688Z,28.70